LTAC/ESB METAR and TAF weather

Enter ICAO airport designator
Station Type Date Time Source
LTAC METAR 2018/12/15 04:50 UTC NOAA

LTAC 150450Z 34003KT 300V020 1300 R03R/P1500U R21L/1400D R03L/P1500D R21R/1300D BCFG SCT006 BKN030 OVC090 01/01 Q1024 BECMG 2000 BR


Station Type Date Time Source
LTAC Decoded METAR 2018/12/15 04:50 UTC NOAA

Ankara / Esenboga, Turkey (LTAC) 40-07N 032-59E 949M
Dec 14, 2018 - 11:50 PM EST / 2018.12.15 0450 UTC
Wind: from the NNW (340 degrees) at 3 MPH (3 KT) (direction variable):0
Visibility: less than 1 mile:0
Sky conditions: overcast
Weather: patches of fog
Temperature: 33 F (1 C)
Dew Point: 33 F (1 C)
Relative Humidity: 100%
Pressure (altimeter): 30.24 in. Hg (1024 hPa)
ob: LTAC 150450Z 34003KT 300V020 1300 R03R/P1500U R21L/1400D R03L/P1500D R21R/1300D BCFG SCT006 BKN030 OVC090 01/01 Q1024 BECMG 2000 BR
cycle: 5

Station Type Date Time Source
LTAC TAF 2018/12/15 06:03 UTC NOAA

TAF TAF LTAC 150440Z 1506/1606 VRB02KT 2000 BR SCT035 BKN100
TEMPO 1506/1508 1100 BCFG BKN005 BKN025
BECMG 1508/1510 4000
BECMG 1510/1512 8000


Example: see airport list